Test XHTML 1.0 Strict Page for WU-History Testing
Station Historical Data
 
Daily Summary for July 06, 2015 Units:  Both    English   Metric
« Previous Day
Next Day »
Daily Weekly Monthly Yearly Custom
  Current: High: Low: Average:
Temperature: 61.9 °F /  16.6 °C 64.0 °F /  17.8 °C 47.3 °F /  8.5 °C 56.2 °F /  13.4 °C
Dew Point: 59.5 °F /  15.3 °C 61.0 °F /  16.1 °C 47.3 °F /  8.5 °C 54.4 °F /  12.4 °C
Humidity: 92% 100% 72% 94%
Wind Speed: 4.6mph /  7.4km/h 10.4mph /  16.7km/h - 3.2mph /  5.1km/h
Wind Gust: 4.6mph /  7.4km/h 10.4mph /  16.7km/h - -
WindSSE - - South
Pressure: 29.95 in /  1014.1 hPa 30.08 in /  1018.5 hPa 29.94 in /  1013.8 hPa -
Precipitation: 0.09 in /  2.29 mm      
Historical Graphs
 
 
Weather-Above Climate History
Untitled
Tabular Data for July 06, 2015
Time Temperature Dew Point Pressure Wind Wind Speed Wind Gust Humidity Rainfall Rate (Hourly)
00:01 53.1 °F /  11.7 °C 50.8 °F /  10.4 °C 30.04in /  1017.2hPa ENE 1.2mph /  1.9km/h 1.2mph /  1.9km/h 92% 0.00in /  0cm
00:06 53.1 °F /  11.7 °C 50.8 °F /  10.4 °C 30.04in /  1017.2hPa WSW 1.2mph /  1.9km/h 1.2mph /  1.9km/h 92% 0.00in /  0cm
00:11 52.7 °F /  11.5 °C 50.4 °F /  10.2 °C 30.04in /  1017.2hPa NNW 1.2mph /  1.9km/h 1.2mph /  1.9km/h 92% 0.00in /  0cm
00:16 52.5 °F /  11.4 °C 50.6 °F /  10.3 °C 30.04in /  1017.2hPa Calm     93% 0.00in /  0cm
00:21 52.2 °F /  11.2 °C 50.5 °F /  10.3 °C 30.04in /  1017.2hPa WNW 2.3mph /  3.7km/h 2.3mph /  3.7km/h 94% 0.00in /  0cm
00:26 52.2 °F /  11.2 °C 50.8 °F /  10.4 °C 30.04in /  1017.2hPa Calm     95% 0.00in /  0cm
00:31 52.2 °F /  11.2 °C 50.5 °F /  10.3 °C 30.04in /  1017.2hPa WNW 3.5mph /  5.6km/h 3.5mph /  5.6km/h 94% 0.00in /  0cm
00:36 51.8 °F /  11 °C 50.4 °F /  10.2 °C 30.04in /  1017.2hPa Calm     95% 0.00in /  0cm
00:41 51.6 °F /  10.9 °C 50.5 °F /  10.3 °C 30.04in /  1017.2hPa WNW 1.2mph /  1.9km/h 1.2mph /  1.9km/h 96% 0.00in /  0cm
00:46 51.6 °F /  10.9 °C 50.5 °F /  10.3 °C 30.04in /  1017.2hPa Calm     96% 0.00in /  0cm
00:51 51.4 °F /  10.8 °C 50.3 °F /  10.2 °C 30.04in /  1017.2hPa Calm     96% 0.00in /  0cm
00:56 51.6 °F /  10.9 °C 50.8 °F /  10.4 °C 30.04in /  1017.2hPa WSW 2.3mph /  3.7km/h 2.3mph /  3.7km/h 97% 0.00in /  0cm
01:01 52.2 °F /  11.2 °C 51.3 °F /  10.7 °C 30.04in /  1017.2hPa West 1.2mph /  1.9km/h 1.2mph /  1.9km/h 97% 0.00in /  0cm
01:06 52.5 °F /  11.4 °C 51.7 °F /  10.9 °C 30.04in /  1017.2hPa West 1.8mph /  2.9km/h 1.8mph /  2.9km/h 97% 0.00in /  0cm
01:11 52.7 °F /  11.5 °C 51.6 °F /  10.9 °C 30.04in /  1017.2hPa SSW 2.3mph /  3.7km/h 2.3mph /  3.7km/h 96% 0.00in /  0cm
01:16 52.9 °F /  11.6 °C 51.8 °F /  11 °C 30.05in /  1017.5hPa WSW 2.5mph /  4km/h 2.5mph /  4km/h 96% 0.00in /  0cm
01:21 53.1 °F /  11.7 °C 51.7 °F /  10.9 °C 30.05in /  1017.5hPa NW 1.2mph /  1.9km/h 1.2mph /  1.9km/h 95% 0.00in /  0cm
01:26 53.2 °F /  11.8 °C 51.8 °F /  11 °C 30.05in /  1017.5hPa West 3.5mph /  5.6km/h 3.5mph /  5.6km/h 95% 0.00in /  0cm
01:31 53.4 °F /  11.9 °C 52.0 °F /  11.1 °C 30.05in /  1017.5hPa NW 1.2mph /  1.9km/h 1.2mph /  1.9km/h 95% 0.00in /  0cm
01:37 53.4 °F /  11.9 °C 52.0 °F /  11.1 °C 30.05in /  1017.5hPa West 3.5mph /  5.6km/h 3.5mph /  5.6km/h 95% 0.00in /  0cm
01:42 53.2 °F /  11.8 °C 51.6 °F /  10.9 °C 30.05in /  1017.5hPa West 1.2mph /  1.9km/h 1.2mph /  1.9km/h 94% 0.00in /  0cm
01:47 53.1 °F /  11.7 °C 51.7 °F /  10.9 °C 30.05in /  1017.5hPa ESE 1.2mph /  1.9km/h 1.2mph /  1.9km/h 95% 0.00in /  0cm
01:52 52.7 °F /  11.5 °C 51.3 °F /  10.7 °C 30.05in /  1017.5hPa Calm     95% 0.00in /  0cm
01:57 52.3 °F /  11.3 °C 51.0 °F /  10.6 °C 30.05in /  1017.5hPa Calm     95% 0.00in /  0cm
02:02 52.0 °F /  11.1 °C 50.9 °F /  10.5 °C 30.05in /  1017.5hPa West 1.2mph /  1.9km/h 1.2mph /  1.9km/h 96% 0.00in /  0cm
02:07 51.6 °F /  10.9 °C 50.5 °F /  10.3 °C 30.05in /  1017.5hPa WNW 0.6mph /  1km/h 0.6mph /  1km/h 96% 0.00in /  0cm
02:12 51.3 °F /  10.7 °C 50.4 °F /  10.2 °C 30.05in /  1017.5hPa WNW 1.2mph /  1.9km/h 1.2mph /  1.9km/h 97% 0.00in /  0cm
02:17 50.9 °F /  10.5 °C 50.4 °F /  10.2 °C 30.05in /  1017.5hPa Calm     98% 0.00in /  0cm
02:22 50.7 °F /  10.4 °C 50.2 °F /  10.1 °C 30.05in /  1017.5hPa Calm     98% 0.00in /  0cm
02:27 50.5 °F /  10.3 °C 50.0 °F /  10 °C 30.05in /  1017.5hPa Calm     98% 0.00in /  0cm
02:32 50.4 °F /  10.2 °C 49.8 °F /  9.9 °C 30.05in /  1017.5hPa Calm     98% 0.00in /  0cm
02:37 50.4 °F /  10.2 °C 50.1 °F /  10.1 °C 30.05in /  1017.5hPa Calm     99% 0.00in /  0cm
02:42 50.4 °F /  10.2 °C 50.1 °F /  10.1 °C 30.05in /  1017.5hPa Calm     99% 0.00in /  0cm
02:47 50.2 °F /  10.1 °C 49.9 °F /  9.9 °C 30.05in /  1017.5hPa WNW 2.3mph /  3.7km/h 2.3mph /  3.7km/h 99% 0.00in /  0cm
02:52 50.0 °F /  10 °C 49.7 °F /  9.8 °C 30.05in /  1017.5hPa Calm     99% 0.00in /  0cm
02:57 50.0 °F /  10 °C 50.0 °F /  10 °C 30.05in /  1017.5hPa Calm     100% 0.00in /  0cm
03:02 50.0 °F /  10 °C 50.0 °F /  10 °C 30.05in /  1017.5hPa Calm     100% 0.00in /  0cm
03:07 49.8 °F /  9.9 °C 49.6 °F /  9.8 °C 30.05in /  1017.5hPa Calm     99% 0.00in /  0cm
03:12 49.8 °F /  9.9 °C 49.8 °F /  9.9 °C 30.05in /  1017.5hPa Calm     100% 0.00in /  0cm
03:17 49.6 °F /  9.8 °C 49.4 °F /  9.7 °C 30.05in /  1017.5hPa Calm     99% 0.00in /  0cm
03:22 49.6 °F /  9.8 °C 49.6 °F /  9.8 °C 30.05in /  1017.5hPa Calm     100% 0.00in /  0cm
03:27 49.5 °F /  9.7 °C 49.5 °F /  9.7 °C 30.05in /  1017.5hPa Calm     100% 0.00in /  0cm
03:32 49.3 °F /  9.6 °C 49.3 °F /  9.6 °C 30.05in /  1017.5hPa Calm     100% 0.00in /  0cm
03:37 48.9 °F /  9.4 °C 48.9 °F /  9.4 °C 30.05in /  1017.5hPa Calm     100% 0.00in /  0cm
03:42 48.9 °F /  9.4 °C 48.9 °F /  9.4 °C 30.05in /  1017.5hPa Calm     100% 0.00in /  0cm
03:47 49.1 °F /  9.5 °C 49.1 °F /  9.5 °C 30.05in /  1017.5hPa Calm     100% 0.00in /  0cm
03:52 49.1 °F /  9.5 °C 49.1 °F /  9.5 °C 30.05in /  1017.5hPa Calm     100% 0.00in /  0cm
03:57 48.9 °F /  9.4 °C 48.9 °F /  9.4 °C 30.05in /  1017.5hPa Calm     100% 0.00in /  0cm
04:02 48.9 °F /  9.4 °C 48.9 °F /  9.4 °C 30.06in /  1017.8hPa Calm     100% 0.00in /  0cm
04:07 48.9 °F /  9.4 °C 48.9 °F /  9.4 °C 30.06in /  1017.8hPa Calm     100% 0.00in /  0cm
04:12 48.9 °F /  9.4 °C 48.9 °F /  9.4 °C 30.06in /  1017.8hPa Calm     100% 0.00in /  0cm
04:17 48.6 °F /  9.2 °C 48.6 °F /  9.2 °C 30.06in /  1017.8hPa Calm     100% 0.00in /  0cm
04:22 48.6 °F /  9.2 °C 48.6 °F /  9.2 °C 30.06in /  1017.8hPa Calm     100% 0.00in /  0cm
04:27 48.4 °F /  9.1 °C 48.4 °F /  9.1 °C 30.06in /  1017.8hPa Calm     100% 0.00in /  0cm
04:32 48.2 °F /  9 °C 48.2 °F /  9 °C 30.06in /  1017.8hPa Calm     100% 0.00in /  0cm
04:37 48.2 °F /  9 °C 48.2 °F /  9 °C 30.06in /  1017.8hPa Calm     100% 0.00in /  0cm
04:42 48.2 °F /  9 °C 48.2 °F /  9 °C 30.06in /  1017.8hPa Calm     100% 0.00in /  0cm
04:47 48.0 °F /  8.9 °C 48.0 °F /  8.9 °C 30.06in /  1017.8hPa Calm     100% 0.00in /  0cm
04:52 47.8 °F /  8.8 °C 47.8 °F /  8.8 °C 30.06in /  1017.8hPa Calm     100% 0.00in /  0cm
04:57 48.0 °F /  8.9 °C 48.0 °F /  8.9 °C 30.06in /  1017.8hPa Calm     100% 0.00in /  0cm
05:02 48.0 °F /  8.9 °C 48.0 °F /  8.9 °C 30.06in /  1017.8hPa Calm     100% 0.00in /  0cm
05:07 47.5 °F /  8.6 °C 47.5 °F /  8.6 °C 30.06in /  1017.8hPa Calm     100% 0.00in /  0cm
05:12 47.3 °F /  8.5 °C 47.3 °F /  8.5 °C 30.06in /  1017.8hPa Calm     100% 0.00in /  0cm
05:17 47.7 °F /  8.7 °C 47.7 °F /  8.7 °C 30.06in /  1017.8hPa Calm     100% 0.00in /  0cm
05:22 47.7 °F /  8.7 °C 47.7 °F /  8.7 °C 30.06in /  1017.8hPa SSE 1.2mph /  1.9km/h 1.2mph /  1.9km/h 100% 0.00in /  0cm
05:27 47.7 °F /  8.7 °C 47.7 °F /  8.7 °C 30.06in /  1017.8hPa Calm     100% 0.00in /  0cm
05:32 47.7 °F /  8.7 °C 47.7 °F /  8.7 °C 30.07in /  1018.2hPa Calm     100% 0.00in /  0cm
05:37 47.7 °F /  8.7 °C 47.7 °F /  8.7 °C 30.07in /  1018.2hPa Calm     100% 0.00in /  0cm
05:42 47.5 °F /  8.6 °C 47.5 °F /  8.6 °C 30.07in /  1018.2hPa Calm     100% 0.00in /  0cm
05:47 47.3 °F /  8.5 °C 47.3 °F /  8.5 °C 30.07in /  1018.2hPa Calm     100% 0.00in /  0cm
05:52 47.3 °F /  8.5 °C 47.3 °F /  8.5 °C 30.07in /  1018.2hPa Calm     100% 0.00in /  0cm
05:57 47.7 °F /  8.7 °C 47.7 °F /  8.7 °C 30.07in /  1018.2hPa Calm     100% 0.00in /  0cm
06:02 47.7 °F /  8.7 °C 47.7 °F /  8.7 °C 30.07in /  1018.2hPa Calm     100% 0.00in /  0cm
06:07 48.0 °F /  8.9 °C 48.0 °F /  8.9 °C 30.07in /  1018.2hPa Calm     100% 0.00in /  0cm
06:12 48.0 °F /  8.9 °C 48.0 °F /  8.9 °C 30.08in /  1018.5hPa Calm     100% 0.00in /  0cm
06:17 48.0 °F /  8.9 °C 48.0 °F /  8.9 °C 30.08in /  1018.5hPa Calm     100% 0.00in /  0cm
06:22 48.2 °F /  9 °C 48.2 °F /  9 °C 30.07in /  1018.2hPa Calm     100% 0.00in /  0cm
06:27 48.7 °F /  9.3 °C 48.7 °F /  9.3 °C 30.07in /  1018.2hPa Calm     100% 0.00in /  0cm
06:32 48.9 °F /  9.4 °C 48.9 °F /  9.4 °C 30.07in /  1018.2hPa NE 1.2mph /  1.9km/h 1.2mph /  1.9km/h 100% 0.00in /  0cm
06:37 49.3 °F /  9.6 °C 49.3 °F /  9.6 °C 30.07in /  1018.2hPa South 2.3mph /  3.7km/h 2.3mph /  3.7km/h 100% 0.00in /  0cm
06:42 49.8 °F /  9.9 °C 49.8 °F /  9.9 °C 30.07in /  1018.2hPa Calm     100% 0.00in /  0cm
06:47 50.2 °F /  10.1 °C 50.2 °F /  10.1 °C 30.07in /  1018.2hPa South 2.3mph /  3.7km/h 2.3mph /  3.7km/h 100% 0.00in /  0cm
06:52 50.5 °F /  10.3 °C 50.5 °F /  10.3 °C 30.08in /  1018.5hPa SSE 1.2mph /  1.9km/h 1.2mph /  1.9km/h 100% 0.00in /  0cm
06:57 50.9 °F /  10.5 °C 50.9 °F /  10.5 °C 30.07in /  1018.2hPa South 2.3mph /  3.7km/h 2.3mph /  3.7km/h 100% 0.00in /  0cm
07:02 51.3 °F /  10.7 °C 51.3 °F /  10.7 °C 30.07in /  1018.2hPa South 2.3mph /  3.7km/h 2.3mph /  3.7km/h 100% 0.00in /  0cm
07:07 51.6 °F /  10.9 °C 51.6 °F /  10.9 °C 30.08in /  1018.5hPa ESE 2.3mph /  3.7km/h 2.3mph /  3.7km/h 100% 0.00in /  0cm
07:12 51.8 °F /  11 °C 51.8 °F /  11 °C 30.08in /  1018.5hPa SSW 3.5mph /  5.6km/h 3.5mph /  5.6km/h 100% 0.00in /  0cm
07:17 52.2 °F /  11.2 °C 52.2 °F /  11.2 °C 30.08in /  1018.5hPa East 3.5mph /  5.6km/h 3.5mph /  5.6km/h 100% 0.00in /  0cm
07:22 52.5 °F /  11.4 °C 52.5 °F /  11.4 °C 30.08in /  1018.5hPa SE 1.2mph /  1.9km/h 1.2mph /  1.9km/h 100% 0.00in /  0cm
07:27 52.7 °F /  11.5 °C 52.7 °F /  11.5 °C 30.08in /  1018.5hPa SE 3.5mph /  5.6km/h 3.5mph /  5.6km/h 100% 0.00in /  0cm
07:32 53.1 °F /  11.7 °C 53.1 °F /  11.7 °C 30.08in /  1018.5hPa SSE 3.5mph /  5.6km/h 3.5mph /  5.6km/h 100% 0.00in /  0cm
07:37 53.4 °F /  11.9 °C 53.4 °F /  11.9 °C 30.08in /  1018.5hPa East 3.5mph /  5.6km/h 3.5mph /  5.6km/h 100% 0.00in /  0cm
07:42 53.8 °F /  12.1 °C 53.8 °F /  12.1 °C 30.08in /  1018.5hPa SSE 4.0mph /  6.4km/h 4.0mph /  6.4km/h 100% 0.00in /  0cm
07:47 54.1 °F /  12.3 °C 54.1 °F /  12.3 °C 30.08in /  1018.5hPa SW 4.6mph /  7.4km/h 4.6mph /  7.4km/h 100% 0.00in /  0cm
07:52 54.5 °F /  12.5 °C 54.2 °F /  12.3 °C 30.07in /  1018.2hPa South 3.5mph /  5.6km/h 3.5mph /  5.6km/h 99% 0.00in /  0cm
07:57 54.9 °F /  12.7 °C 54.3 °F /  12.4 °C 30.07in /  1018.2hPa WNW 2.3mph /  3.7km/h 2.3mph /  3.7km/h 98% 0.00in /  0cm
08:02 55.6 °F /  13.1 °C 54.5 °F /  12.5 °C 30.07in /  1018.2hPa NNW 1.2mph /  1.9km/h 1.2mph /  1.9km/h 96% 0.00in /  0cm
08:07 55.9 °F /  13.3 °C 54.5 °F /  12.5 °C 30.07in /  1018.2hPa SE 4.8mph /  7.7km/h 4.8mph /  7.7km/h 95% 0.00in /  0cm
08:12 55.9 °F /  13.3 °C 54.2 °F /  12.3 °C 30.07in /  1018.2hPa ESE 3.5mph /  5.6km/h 3.5mph /  5.6km/h 94% 0.00in /  0cm
08:17 56.1 °F /  13.4 °C 54.1 °F /  12.3 °C 30.08in /  1018.5hPa ESE 3.5mph /  5.6km/h 3.5mph /  5.6km/h 93% 0.00in /  0cm
08:22 56.7 °F /  13.7 °C 54.4 °F /  12.4 °C 30.07in /  1018.2hPa South 4.6mph /  7.4km/h 4.6mph /  7.4km/h 92% 0.00in /  0cm
08:27 57.0 °F /  13.9 °C 54.1 °F /  12.3 °C 30.07in /  1018.2hPa South 3.5mph /  5.6km/h 3.5mph /  5.6km/h 90% 0.00in /  0cm
08:32 57.9 °F /  14.4 °C 55.0 °F /  12.8 °C 30.07in /  1018.2hPa SSE 3.5mph /  5.6km/h 3.5mph /  5.6km/h 90% 0.00in /  0cm
08:37 59.0 °F /  15 °C 55.1 °F /  12.8 °C 30.07in /  1018.2hPa South 5.8mph /  9.3km/h 5.8mph /  9.3km/h 87% 0.00in /  0cm
08:42 59.5 °F /  15.3 °C 54.7 °F /  12.6 °C 30.07in /  1018.2hPa SE 4.6mph /  7.4km/h 4.6mph /  7.4km/h 84% 0.00in /  0cm
08:47 60.1 °F /  15.6 °C 54.6 °F /  12.6 °C 30.07in /  1018.2hPa WSW 5.8mph /  9.3km/h 5.8mph /  9.3km/h 82% 0.00in /  0cm
08:52 60.8 °F /  16 °C 54.9 °F /  12.7 °C 30.07in /  1018.2hPa West 3.5mph /  5.6km/h 3.5mph /  5.6km/h 81% 0.00in /  0cm
08:57 62.8 °F /  17.1 °C 55.1 °F /  12.8 °C 30.07in /  1018.2hPa SSE 5.8mph /  9.3km/h 5.8mph /  9.3km/h 76% 0.00in /  0cm
09:02 63.5 °F /  17.5 °C 55.1 °F /  12.8 °C 30.07in /  1018.2hPa NE 2.3mph /  3.7km/h 2.3mph /  3.7km/h 74% 0.00in /  0cm
09:07 64.0 °F /  17.8 °C 54.8 °F /  12.7 °C 30.07in /  1018.2hPa SW 6.9mph /  11.1km/h 6.9mph /  11.1km/h 72% 0.00in /  0cm
09:12 63.3 °F /  17.4 °C 54.1 °F /  12.3 °C 30.07in /  1018.2hPa East 4.6mph /  7.4km/h 4.6mph /  7.4km/h 72% 0.00in /  0cm
09:17 62.6 °F /  17 °C 54.2 °F /  12.3 °C 30.06in /  1017.8hPa SE 6.9mph /  11.1km/h 6.9mph /  11.1km/h 74% 0.00in /  0cm
09:22 63.1 °F /  17.3 °C 54.3 °F /  12.4 °C 30.07in /  1018.2hPa WSW 3.5mph /  5.6km/h 3.5mph /  5.6km/h 73% 0.00in /  0cm
09:27 62.6 °F /  17 °C 53.4 °F /  11.9 °C 30.07in /  1018.2hPa ESE 5.8mph /  9.3km/h 5.8mph /  9.3km/h 72% 0.00in /  0cm
09:32 61.7 °F /  16.5 °C 53.3 °F /  11.8 °C 30.07in /  1018.2hPa ESE 4.6mph /  7.4km/h 4.6mph /  7.4km/h 74% 0.00in /  0cm
09:37 61.9 °F /  16.6 °C 54.2 °F /  12.3 °C 30.07in /  1018.2hPa East 3.5mph /  5.6km/h 3.5mph /  5.6km/h 76% 0.00in /  0cm
09:42 62.1 °F /  16.7 °C 54.0 °F /  12.2 °C 30.07in /  1018.2hPa ENE 5.8mph /  9.3km/h 5.8mph /  9.3km/h 75% 0.00in /  0cm
09:47 62.1 °F /  16.7 °C 54.0 °F /  12.2 °C 30.06in /  1017.8hPa SW 4.6mph /  7.4km/h 4.6mph /  7.4km/h 75% 0.00in /  0cm
09:52 62.4 °F /  16.9 °C 54.0 °F /  12.2 °C 30.07in /  1018.2hPa East 3.5mph /  5.6km/h 3.5mph /  5.6km/h 74% 0.00in /  0cm
09:57 62.6 °F /  17 °C 54.6 °F /  12.6 °C 30.06in /  1017.8hPa SSE 5.8mph /  9.3km/h 5.8mph /  9.3km/h 75% 0.00in /  0cm
10:02 63.0 °F /  17.2 °C 54.5 °F /  12.5 °C 30.06in /  1017.8hPa SE 4.6mph /  7.4km/h 4.6mph /  7.4km/h 74% 0.00in /  0cm
10:07 63.0 °F /  17.2 °C 54.5 °F /  12.5 °C 30.06in /  1017.8hPa WSW 6.9mph /  11.1km/h 6.9mph /  11.1km/h 74% 0.00in /  0cm
10:12 63.1 °F /  17.3 °C 54.3 °F /  12.4 °C 30.07in /  1018.2hPa WSW 10.4mph /  16.7km/h 10.4mph /  16.7km/h 73% 0.00in /  0cm
10:17 63.3 °F /  17.4 °C 54.9 °F /  12.7 °C 30.07in /  1018.2hPa ENE 3.5mph /  5.6km/h 3.5mph /  5.6km/h 74% 0.00in /  0cm
10:22 62.6 °F /  17 °C 53.8 °F /  12.1 °C 30.07in /  1018.2hPa South 4.0mph /  6.4km/h 4.0mph /  6.4km/h 73% 0.00in /  0cm
10:27 61.7 °F /  16.5 °C 53.7 °F /  12.1 °C 30.07in /  1018.2hPa SSE 4.6mph /  7.4km/h 4.6mph /  7.4km/h 75% 0.00in /  0cm
10:32 61.0 °F /  16.1 °C 53.7 °F /  12.1 °C 30.07in /  1018.2hPa SW 4.1mph /  6.6km/h 4.1mph /  6.6km/h 77% 0.00in /  0cm
10:37 60.6 °F /  15.9 °C 54.1 °F /  12.3 °C 30.07in /  1018.2hPa WNW 4.6mph /  7.4km/h 4.6mph /  7.4km/h 79% 0.00in /  0cm
10:42 60.6 °F /  15.9 °C 55.1 °F /  12.8 °C 30.07in /  1018.2hPa East 1.2mph /  1.9km/h 1.2mph /  1.9km/h 82% 0.00in /  0cm
10:47 60.6 °F /  15.9 °C 55.8 °F /  13.2 °C 30.07in /  1018.2hPa West 3.5mph /  5.6km/h 3.5mph /  5.6km/h 84% 0.00in /  0cm
10:52 60.8 °F /  16 °C 56.3 °F /  13.5 °C 30.07in /  1018.2hPa SSW 3.6mph /  5.8km/h 3.6mph /  5.8km/h 85% 0.01in /  0.25cm
10:57 61.0 °F /  16.1 °C 56.4 °F /  13.6 °C 30.07in /  1018.2hPa ENE 5.8mph /  9.3km/h 5.8mph /  9.3km/h 85% 0.01in /  0.25cm
11:02 61.0 °F /  16.1 °C 56.1 °F /  13.4 °C 30.07in /  1018.2hPa WNW 2.3mph /  3.7km/h 2.3mph /  3.7km/h 84% 0.01in /  0.25cm
11:07 61.0 °F /  16.1 °C 56.4 °F /  13.6 °C 30.07in /  1018.2hPa WNW 4.6mph /  7.4km/h 4.6mph /  7.4km/h 85% 0.01in /  0.25cm
11:12 60.4 °F /  15.8 °C 56.6 °F /  13.7 °C 30.07in /  1018.2hPa NW 2.3mph /  3.7km/h 2.3mph /  3.7km/h 87% 0.02in /  0.51cm
11:17 59.7 °F /  15.4 °C 56.5 °F /  13.6 °C 30.07in /  1018.2hPa NE 2.3mph /  3.7km/h 2.3mph /  3.7km/h 89% 0.02in /  0.51cm
11:22 59.7 °F /  15.4 °C 56.8 °F /  13.8 °C 30.07in /  1018.2hPa WNW 2.3mph /  3.7km/h 2.3mph /  3.7km/h 90% 0.02in /  0.51cm
11:27 60.3 °F /  15.7 °C 57.6 °F /  14.2 °C 30.06in /  1017.8hPa ENE 1.2mph /  1.9km/h 1.2mph /  1.9km/h 91% 0.02in /  0.51cm
11:32 59.9 °F /  15.5 °C 57.6 °F /  14.2 °C 30.06in /  1017.8hPa WSW 2.3mph /  3.7km/h 2.3mph /  3.7km/h 92% 0.02in /  0.51cm
11:37 60.3 °F /  15.7 °C 57.9 °F /  14.4 °C 30.06in /  1017.8hPa West 1.7mph /  2.7km/h 1.7mph /  2.7km/h 92% 0.02in /  0.51cm
11:42 60.6 °F /  15.9 °C 58.3 °F /  14.6 °C 30.06in /  1017.8hPa WNW 5.8mph /  9.3km/h 5.8mph /  9.3km/h 92% 0.02in /  0.51cm
11:47 60.3 °F /  15.7 °C 57.9 °F /  14.4 °C 30.06in /  1017.8hPa Calm     92% 0.02in /  0.51cm
11:52 59.9 °F /  15.5 °C 57.6 °F /  14.2 °C 30.06in /  1017.8hPa ENE 3.5mph /  5.6km/h 3.5mph /  5.6km/h 92% 0.02in /  0.51cm
11:57 59.7 °F /  15.4 °C 57.4 °F /  14.1 °C 30.06in /  1017.8hPa SSW 5.1mph /  8.2km/h 5.1mph /  8.2km/h 92% 0.02in /  0.51cm
12:02 59.2 °F /  15.1 °C 57.5 °F /  14.2 °C 30.06in /  1017.8hPa West 2.3mph /  3.7km/h 2.3mph /  3.7km/h 94% 0.02in /  0.51cm
12:07 58.8 °F /  14.9 °C 57.4 °F /  14.1 °C 30.06in /  1017.8hPa South 1.4mph /  2.3km/h 1.4mph /  2.3km/h 95% 0.02in /  0.51cm
12:12 58.5 °F /  14.7 °C 57.3 °F /  14.1 °C 30.06in /  1017.8hPa ESE 2.3mph /  3.7km/h 2.3mph /  3.7km/h 96% 0.02in /  0.51cm
12:17 57.9 °F /  14.4 °C 57.1 °F /  13.9 °C 30.06in /  1017.8hPa West 1.2mph /  1.9km/h 1.2mph /  1.9km/h 97% 0.03in /  0.76cm
12:22 58.1 °F /  14.5 °C 57.5 °F /  14.2 °C 30.07in /  1018.2hPa WNW 1.2mph /  1.9km/h 1.2mph /  1.9km/h 98% 0.04in /  1.02cm
12:27 58.5 °F /  14.7 °C 57.9 °F /  14.4 °C 30.06in /  1017.8hPa ESE 4.6mph /  7.4km/h 4.6mph /  7.4km/h 98% 0.04in /  1.02cm
12:32 57.9 °F /  14.4 °C 57.4 °F /  14.1 °C 30.06in /  1017.8hPa SSE 3.5mph /  5.6km/h 3.5mph /  5.6km/h 98% 0.04in /  1.02cm
12:37 58.1 °F /  14.5 °C 57.3 °F /  14.1 °C 30.06in /  1017.8hPa NE 6.9mph /  11.1km/h 6.9mph /  11.1km/h 97% 0.03in /  0.76cm
12:42 58.8 °F /  14.9 °C 58.3 °F /  14.6 °C 30.06in /  1017.8hPa WNW 4.6mph /  7.4km/h 4.6mph /  7.4km/h 98% 0.04in /  1.02cm
12:47 58.8 °F /  14.9 °C 58.0 °F /  14.4 °C 30.06in /  1017.8hPa East 2.2mph /  3.5km/h 2.2mph /  3.5km/h 97% 0.04in /  1.02cm
12:52 59.0 °F /  15 °C 58.2 °F /  14.6 °C 30.06in /  1017.8hPa WNW 3.5mph /  5.6km/h 3.5mph /  5.6km/h 97% 0.04in /  1.02cm
12:57 59.7 °F /  15.4 °C 58.9 °F /  14.9 °C 30.05in /  1017.5hPa South 1.2mph /  1.9km/h 1.2mph /  1.9km/h 97% 0.04in /  1.02cm
13:02 59.5 °F /  15.3 °C 58.4 °F /  14.7 °C 30.05in /  1017.5hPa East 1.7mph /  2.7km/h 1.7mph /  2.7km/h 96% 0.04in /  1.02cm
13:07 59.4 °F /  15.2 °C 58.5 °F /  14.7 °C 30.05in /  1017.5hPa SSE 5.8mph /  9.3km/h 5.8mph /  9.3km/h 97% 0.03in /  0.76cm
13:12 59.2 °F /  15.1 °C 58.0 °F /  14.4 °C 30.05in /  1017.5hPa South 5.8mph /  9.3km/h 5.8mph /  9.3km/h 96% 0.02in /  0.51cm
13:17 59.0 °F /  15 °C 57.6 °F /  14.2 °C 30.05in /  1017.5hPa SSE 8.4mph /  13.5km/h 8.4mph /  13.5km/h 95% 0.02in /  0.51cm
13:22 59.0 °F /  15 °C 57.9 °F /  14.4 °C 30.05in /  1017.5hPa SW 6.9mph /  11.1km/h 6.9mph /  11.1km/h 96% 0.01in /  0.25cm
13:27 59.0 °F /  15 °C 57.9 °F /  14.4 °C 30.05in /  1017.5hPa SSE 8.1mph /  13km/h 8.1mph /  13km/h 96% 0.01in /  0.25cm
13:32 59.4 °F /  15.2 °C 58.2 °F /  14.6 °C 30.05in /  1017.5hPa ESE 3.6mph /  5.8km/h 3.6mph /  5.8km/h 96% 0.01in /  0.25cm
13:37 59.4 °F /  15.2 °C 58.2 °F /  14.6 °C 30.05in /  1017.5hPa SSE 5.8mph /  9.3km/h 5.8mph /  9.3km/h 96% 0.01in /  0.25cm
13:42 59.7 °F /  15.4 °C 58.9 °F /  14.9 °C 30.05in /  1017.5hPa South 2.3mph /  3.7km/h 2.3mph /  3.7km/h 97% 0.00in /  0cm
13:47 59.4 °F /  15.2 °C 58.5 °F /  14.7 °C 30.05in /  1017.5hPa SSE 8.1mph /  13km/h 8.1mph /  13km/h 97% 0.01in /  0.25cm
13:52 59.2 °F /  15.1 °C 58.6 °F /  14.8 °C 30.05in /  1017.5hPa SE 1.2mph /  1.9km/h 1.2mph /  1.9km/h 98% 0.01in /  0.25cm
13:57 59.2 °F /  15.1 °C 58.6 °F /  14.8 °C 30.04in /  1017.2hPa East 3.5mph /  5.6km/h 3.5mph /  5.6km/h 98% 0.02in /  0.51cm
14:02 59.0 °F /  15 °C 58.4 °F /  14.7 °C 30.04in /  1017.2hPa SSW 1.2mph /  1.9km/h 1.2mph /  1.9km/h 98% 0.02in /  0.51cm
14:07 59.0 °F /  15 °C 58.4 °F /  14.7 °C 30.04in /  1017.2hPa SSE 3.5mph /  5.6km/h 3.5mph /  5.6km/h 98% 0.02in /  0.51cm
14:12 59.4 °F /  15.2 °C 59.1 °F /  15.1 °C 30.04in /  1017.2hPa SE 6.9mph /  11.1km/h 6.9mph /  11.1km/h 99% 0.02in /  0.51cm
14:17 59.7 °F /  15.4 °C 59.4 °F /  15.2 °C 30.03in /  1016.8hPa SSE 4.6mph /  7.4km/h 4.6mph /  7.4km/h 99% 0.02in /  0.51cm
14:22 59.7 °F /  15.4 °C 59.4 °F /  15.2 °C 30.03in /  1016.8hPa SSE 5.8mph /  9.3km/h 5.8mph /  9.3km/h 99% 0.02in /  0.51cm
14:27 59.5 °F /  15.3 °C 59.0 °F /  15 °C 30.03in /  1016.8hPa South 5.8mph /  9.3km/h 5.8mph /  9.3km/h 98% 0.02in /  0.51cm
14:33 59.4 °F /  15.2 °C 59.1 °F /  15.1 °C 30.03in /  1016.8hPa SE 4.6mph /  7.4km/h 4.6mph /  7.4km/h 99% 0.02in /  0.51cm
14:38 59.2 °F /  15.1 °C 58.6 °F /  14.8 °C 30.03in /  1016.8hPa South 5.8mph /  9.3km/h 5.8mph /  9.3km/h 98% 0.02in /  0.51cm
14:43 59.2 °F /  15.1 °C 58.6 °F /  14.8 °C 30.03in /  1016.8hPa South 3.5mph /  5.6km/h 3.5mph /  5.6km/h 98% 0.02in /  0.51cm
14:48 59.4 °F /  15.2 °C 59.1 °F /  15.1 °C 30.03in /  1016.8hPa ESE 2.3mph /  3.7km/h 2.3mph /  3.7km/h 99% 0.02in /  0.51cm
14:53 59.7 °F /  15.4 °C 59.4 °F /  15.2 °C 30.03in /  1016.8hPa WSW 3.5mph /  5.6km/h 3.5mph /  5.6km/h 99% 0.01in /  0.25cm
14:58 60.3 °F /  15.7 °C 60.0 °F /  15.6 °C 30.02in /  1016.5hPa SSW 1.2mph /  1.9km/h 1.2mph /  1.9km/h 99% 0.01in /  0.25cm
15:03 60.6 °F /  15.9 °C 60.3 °F /  15.7 °C 30.03in /  1016.8hPa SSE 7.7mph /  12.4km/h 7.7mph /  12.4km/h 99% 0.00in /  0cm
15:08 59.9 °F /  15.5 °C 59.3 °F /  15.2 °C 30.03in /  1016.8hPa SSE 8.1mph /  13km/h 8.1mph /  13km/h 98% 0.00in /  0cm
15:13 59.9 °F /  15.5 °C 59.0 °F /  15 °C 30.02in /  1016.5hPa SE 4.6mph /  7.4km/h 4.6mph /  7.4km/h 97% 0.00in /  0cm
15:18 60.3 °F /  15.7 °C 59.4 °F /  15.2 °C 30.01in /  1016.1hPa SSE 2.3mph /  3.7km/h 2.3mph /  3.7km/h 97% 0.00in /  0cm
15:23 60.8 °F /  16 °C 59.9 °F /  15.5 °C 30.01in /  1016.1hPa South 3.5mph /  5.6km/h 3.5mph /  5.6km/h 97% 0.00in /  0cm
15:28 60.6 °F /  15.9 °C 59.5 °F /  15.3 °C 30.02in /  1016.5hPa SSW 3.5mph /  5.6km/h 3.5mph /  5.6km/h 96% 0.00in /  0cm
15:33 60.6 °F /  15.9 °C 59.5 °F /  15.3 °C 30.02in /  1016.5hPa SSE 9.2mph /  14.8km/h 9.2mph /  14.8km/h 96% 0.00in /  0cm
15:38 60.3 °F /  15.7 °C 59.1 °F /  15.1 °C 30.02in /  1016.5hPa SSE 5.8mph /  9.3km/h 5.8mph /  9.3km/h 96% 0.00in /  0cm
15:43 60.3 °F /  15.7 °C 59.1 °F /  15.1 °C 30.02in /  1016.5hPa South 6.9mph /  11.1km/h 6.9mph /  11.1km/h 96% 0.00in /  0cm
15:48 60.4 °F /  15.8 °C 59.3 °F /  15.2 °C 30.00in /  1015.8hPa ESE 6.9mph /  11.1km/h 6.9mph /  11.1km/h 96% 0.00in /  0cm
15:53 60.8 °F /  16 °C 59.7 °F /  15.4 °C 30.01in /  1016.1hPa SE 8.1mph /  13km/h 8.1mph /  13km/h 96% 0.00in /  0cm
15:58 60.6 °F /  15.9 °C 59.5 °F /  15.3 °C 30.01in /  1016.1hPa SSE 5.8mph /  9.3km/h 5.8mph /  9.3km/h 96% 0.00in /  0cm
16:03 60.3 °F /  15.7 °C 59.1 °F /  15.1 °C 30.01in /  1016.1hPa SSE 6.9mph /  11.1km/h 6.9mph /  11.1km/h 96% 0.00in /  0cm
16:08 60.4 °F /  15.8 °C 59.0 °F /  15 °C 30.02in /  1016.5hPa SSE 8.7mph /  14km/h 8.7mph /  14km/h 95% 0.00in /  0cm
16:13 60.6 °F /  15.9 °C 59.5 °F /  15.3 °C 30.01in /  1016.1hPa SSE 4.6mph /  7.4km/h 4.6mph /  7.4km/h 96% 0.00in /  0cm
16:18 60.8 °F /  16 °C 59.7 °F /  15.4 °C 30.01in /  1016.1hPa South 6.9mph /  11.1km/h 6.9mph /  11.1km/h 96% 0.00in /  0cm
16:23 61.0 °F /  16.1 °C 59.8 °F /  15.4 °C 30.00in /  1015.8hPa SE 6.9mph /  11.1km/h 6.9mph /  11.1km/h 96% 0.00in /  0cm
16:28 61.2 °F /  16.2 °C 59.7 °F /  15.4 °C 30.00in /  1015.8hPa SE 6.9mph /  11.1km/h 6.9mph /  11.1km/h 95% 0.00in /  0cm
16:33 61.0 °F /  16.1 °C 59.2 °F /  15.1 °C 30.00in /  1015.8hPa SE 6.9mph /  11.1km/h 6.9mph /  11.1km/h 94% 0.00in /  0cm
16:38 60.1 °F /  15.6 °C 58.6 °F /  14.8 °C 30.00in /  1015.8hPa SSE 4.6mph /  7.4km/h 4.6mph /  7.4km/h 95% 0.00in /  0cm
16:43 59.7 °F /  15.4 °C 58.6 °F /  14.8 °C 30.00in /  1015.8hPa SSE 6.9mph /  11.1km/h 6.9mph /  11.1km/h 96% 0.00in /  0cm
16:48 59.4 °F /  15.2 °C 58.2 °F /  14.6 °C 30.00in /  1015.8hPa ESE 8.1mph /  13km/h 8.1mph /  13km/h 96% 0.00in /  0cm
16:53 59.5 °F /  15.3 °C 58.7 °F /  14.8 °C 29.99in /  1015.5hPa SE 5.8mph /  9.3km/h 5.8mph /  9.3km/h 97% 0.00in /  0cm
16:58 59.7 °F /  15.4 °C 58.9 °F /  14.9 °C 29.99in /  1015.5hPa SSE 5.8mph /  9.3km/h 5.8mph /  9.3km/h 97% 0.00in /  0cm
17:03 59.5 °F /  15.3 °C 59.0 °F /  15 °C 29.99in /  1015.5hPa SE 4.6mph /  7.4km/h 4.6mph /  7.4km/h 98% 0.00in /  0cm
17:08 59.7 °F /  15.4 °C 59.2 °F /  15.1 °C 29.98in /  1015.1hPa SSW 6.9mph /  11.1km/h 6.9mph /  11.1km/h 98% 0.00in /  0cm
17:13 59.9 °F /  15.5 °C 59.3 °F /  15.2 °C 29.98in /  1015.1hPa SSE 8.1mph /  13km/h 8.1mph /  13km/h 98% 0.00in /  0cm
17:18 60.1 °F /  15.6 °C 59.5 °F /  15.3 °C 29.97in /  1014.8hPa South 6.9mph /  11.1km/h 6.9mph /  11.1km/h 98% 0.00in /  0cm
17:23 60.4 °F /  15.8 °C 59.9 °F /  15.5 °C 29.97in /  1014.8hPa South 5.8mph /  9.3km/h 5.8mph /  9.3km/h 98% 0.00in /  0cm
17:28 60.6 °F /  15.9 °C 59.8 °F /  15.4 °C 29.97in /  1014.8hPa SSE 4.6mph /  7.4km/h 4.6mph /  7.4km/h 97% 0.00in /  0cm
17:33 60.8 °F /  16 °C 59.7 °F /  15.4 °C 29.97in /  1014.8hPa SSE 3.5mph /  5.6km/h 3.5mph /  5.6km/h 96% 0.00in /  0cm
17:38 61.5 °F /  16.4 °C 60.4 °F /  15.8 °C 29.97in /  1014.8hPa SSE 4.6mph /  7.4km/h 4.6mph /  7.4km/h 96% 0.00in /  0cm
17:43 61.9 °F /  16.6 °C 60.4 °F /  15.8 °C 29.97in /  1014.8hPa SE 4.6mph /  7.4km/h 4.6mph /  7.4km/h 95% 0.00in /  0cm
17:48 62.4 °F /  16.9 °C 61.0 °F /  16.1 °C 29.96in /  1014.4hPa SW 2.3mph /  3.7km/h 2.3mph /  3.7km/h 95% 0.00in /  0cm
17:53 62.2 °F /  16.8 °C 60.2 °F /  15.7 °C 29.96in /  1014.4hPa NW 5.8mph /  9.3km/h 5.8mph /  9.3km/h 93% 0.00in /  0cm
17:58 62.4 °F /  16.9 °C 60.4 °F /  15.8 °C 29.96in /  1014.4hPa SSE 5.8mph /  9.3km/h 5.8mph /  9.3km/h 93% 0.00in /  0cm
18:03 62.4 °F /  16.9 °C 60.1 °F /  15.6 °C 29.95in /  1014.1hPa SE 8.1mph /  13km/h 8.1mph /  13km/h 92% 0.00in /  0cm
18:08 62.4 °F /  16.9 °C 60.1 °F /  15.6 °C 29.95in /  1014.1hPa SE 6.9mph /  11.1km/h 6.9mph /  11.1km/h 92% 0.00in /  0cm
18:13 62.2 °F /  16.8 °C 59.6 °F /  15.3 °C 29.95in /  1014.1hPa ESE 6.9mph /  11.1km/h 6.9mph /  11.1km/h 91% 0.00in /  0cm
18:18 62.4 °F /  16.9 °C 59.8 °F /  15.4 °C 29.95in /  1014.1hPa SSE 6.9mph /  11.1km/h 6.9mph /  11.1km/h 91% 0.00in /  0cm
18:24 62.6 °F /  17 °C 59.9 °F /  15.5 °C 29.95in /  1014.1hPa ESE 6.9mph /  11.1km/h 6.9mph /  11.1km/h 91% 0.00in /  0cm
18:29 62.8 °F /  17.1 °C 60.1 °F /  15.6 °C 29.95in /  1014.1hPa South 8.1mph /  13km/h 8.1mph /  13km/h 91% 0.00in /  0cm
18:34 63.0 °F /  17.2 °C 60.0 °F /  15.6 °C 29.95in /  1014.1hPa ESE 5.8mph /  9.3km/h 5.8mph /  9.3km/h 90% 0.00in /  0cm
18:39 62.8 °F /  17.1 °C 59.8 °F /  15.4 °C 29.95in /  1014.1hPa SSE 5.8mph /  9.3km/h 5.8mph /  9.3km/h 90% 0.00in /  0cm
18:44 62.6 °F /  17 °C 59.6 °F /  15.3 °C 29.94in /  1013.8hPa East 5.8mph /  9.3km/h 5.8mph /  9.3km/h 90% 0.00in /  0cm
18:49 62.4 °F /  16.9 °C 59.8 °F /  15.4 °C 29.94in /  1013.8hPa SE 3.6mph /  5.8km/h 3.6mph /  5.8km/h 91% 0.00in /  0cm
18:54 62.2 °F /  16.8 °C 59.6 °F /  15.3 °C 29.94in /  1013.8hPa SE 5.8mph /  9.3km/h 5.8mph /  9.3km/h 91% 0.00in /  0cm
19:02 61.9 °F /  16.6 °C 59.5 °F /  15.3 °C 29.95in /  1014.1hPa SSE 4.6mph /  7.4km/h 4.6mph /  7.4km/h 92% 0.00in /  0cm
Wether-Above
Compliments of Weather Underground
Welcome to Weather-Above
Cheddleton weather station supplies various organisations with data from our weather station one of them is the weather Underground this information displayed here is coming from the weather Underground server 

If any information is used please acknowledge the source to www weather-above.com or weather Underground